Time;durP1;ratioP1;P1;durP2;ratioP2;P2;SDS_P1;SDS_P2;PMS_P1;PMS_P2;Temp;Humidity;BMP_temperature;BMP_pressure;BME280_temperature;BME280_humidity;BME280_pressure;Samples;Min_cycle;Max_cycle;Signal;HPM_P1;HPM_P2
2022/05/27 00:01:38;;;;;;;2.05;0.50;;;;;;;20.78;41.01;102061.25;16134950;19;130696;-45
2022/05/27 00:07:00;;;;;;;1.65;0.30;;;;;;;20.79;41.30;102062.97;16135385;19;130192;-44
2022/05/27 00:12:21;;;;;;;1.70;0.30;;;;;;;20.79;40.92;102051.84;16129844;19;129971;-44
2022/05/27 00:17:43;;;;;;;1.15;0.30;;;;;;;20.78;40.87;102055.69;16136620;19;131443;-42
2022/05/27 00:23:05;;;;;;;1.98;0.30;;;;;;;20.77;40.78;102042.00;16135933;19;129348;-46
2022/05/27 00:28:27;;;;;;;1.40;0.43;;;;;;;20.76;41.25;102038.38;16133669;19;130431;-44
2022/05/27 00:33:49;;;;;;;3.00;0.50;;;;;;;20.76;41.31;102041.16;16127737;19;129081;-42
2022/05/27 00:39:10;;;;;;;1.70;0.40;;;;;;;20.74;40.89;102033.00;16133647;19;129904;-42
2022/05/27 00:44:33;;;;;;;0.73;0.22;;;;;;;20.74;41.08;102038.56;16132806;19;129678;-44
2022/05/27 00:50:00;;;;;;;1.17;0.20;;;;;;;20.75;40.88;102034.75;16132314;19;129522;-43
2022/05/27 00:55:28;;;;;;;3.50;0.50;;;;;;;20.74;41.22;102027.44;16134400;19;129535;-44
2022/05/27 01:00:50;;;;;;;0.90;0.30;;;;;;;20.74;40.88;102029.38;16128567;19;132400;-43
2022/05/27 01:06:12;;;;;;;0.85;0.40;;;;;;;20.72;41.09;102029.63;16130333;19;130265;-41
2022/05/27 01:11:42;;;;;;;2.30;0.40;;;;;;;20.72;41.21;102029.63;16125903;19;130470;-44
2022/05/27 01:17:12;;;;;;;1.58;0.57;;;;;;;20.72;40.83;102018.50;16124219;19;130331;-45
2022/05/27 01:22:46;;;;;;;2.33;0.50;;;;;;;20.72;41.08;102009.31;16128245;19;129284;-43
2022/05/27 01:28:27;;;;;;;0.57;0.30;;;;;;;20.71;40.85;102010.38;16127571;19;129799;-44
2022/05/27 01:34:19;;;;;;;0.60;0.30;;;;;;;20.70;41.20;102003.13;16127484;19;129532;-43
2022/05/27 01:40:12;;;;;;;2.67;0.30;;;;;;;20.70;40.88;102015.13;16123517;19;129999;-44
2022/05/27 01:45:46;;;;;;;3.60;0.30;;;;;;;20.68;41.01;102006.16;16138996;19;129686;-45
2022/05/27 01:51:18;;;;;;;0.93;0.30;;;;;;;20.67;41.27;102004.44;16143672;19;129718;-41
2022/05/27 01:56:54;;;;;;;1.60;0.35;;;;;;;20.69;41.32;102004.22;16144235;19;130730;-42
2022/05/27 02:02:21;;;;;;;1.25;0.30;;;;;;;20.67;40.90;102010.00;16146159;19;130541;-43
2022/05/27 02:07:55;;;;;;;1.52;0.40;;;;;;;20.66;40.91;101999.13;16146376;19;130595;-43
2022/05/27 02:13:54;;;;;;;1.02;0.38;;;;;;;20.66;40.95;102001.91;16138580;19;129680;-44
2022/05/27 02:19:36;;;;;;;0.98;0.30;;;;;;;20.66;41.35;101996.34;16139304;19;130499;-48
2022/05/27 02:25:06;;;;;;;0.45;0.20;;;;;;;20.63;41.22;101997.66;16141670;19;130087;-47
2022/05/27 02:30:31;;;;;;;2.05;0.50;;;;;;;20.64;41.00;101984.63;16141822;19;130794;-44
2022/05/27 02:35:58;;;;;;;1.35;0.28;;;;;;;20.63;41.42;101983.75;16140859;19;130081;-45
2022/05/27 02:41:36;;;;;;;2.78;0.40;;;;;;;20.63;40.95;101980.97;16141469;19;129923;-44
2022/05/27 02:47:07;;;;;;;1.17;0.40;;;;;;;20.62;41.17;101984.84;16139963;19;131002;-45
2022/05/27 02:52:44;;;;;;;1.45;0.32;;;;;;;20.64;40.90;101979.06;16136124;19;130403;-45
2022/05/27 02:58:06;;;;;;;0.40;0.28;;;;;;;20.62;41.42;101978.44;16140009;19;129846;-49
2022/05/27 03:03:29;;;;;;;0.35;0.10;;;;;;;20.62;41.19;101978.44;16143589;19;130732;-45
2022/05/27 03:09:05;;;;;;;1.90;0.60;;;;;;;20.63;41.23;101974.56;16145122;19;128995;-45
2022/05/27 03:14:33;;;;;;;0.95;0.20;;;;;;;20.61;41.05;101972.03;16132878;19;129843;-43
2022/05/27 03:20:18;;;;;;;3.13;0.40;;;;;;;20.59;41.10;101975.03;16133213;19;130345;-41
2022/05/27 03:26:02;;;;;;;1.30;0.50;;;;;;;20.62;41.50;101978.44;16127426;19;130197;-42
2022/05/27 03:31:27;;;;;;;0.77;0.32;;;;;;;20.59;41.13;101971.41;16127152;19;130959;-44
2022/05/27 03:36:55;;;;;;;;;;;;;;;20.55;41.57;101964.63;16128787;19;130260;-42
2022/05/27 03:42:19;;;;;;;1.55;0.32;;;;;;;20.57;41.48;101968.84;16127991;19;129201;-48
2022/05/27 03:47:43;;;;;;;2.30;0.70;;;;;;;20.56;41.19;101978.28;16128280;19;130078;-45
2022/05/27 03:53:04;;;;;;;1.63;0.40;;;;;;;20.55;41.15;101979.38;16126047;19;130298;-43
2022/05/27 03:58:26;;;;;;;1.17;0.52;;;;;;;20.55;41.51;101979.38;16125135;19;130654;-46
2022/05/27 04:03:48;;;;;;;1.85;0.52;;;;;;;20.55;41.58;101987.72;16137060;19;132479;-46
2022/05/27 04:09:10;;;;;;;0.85;0.40;;;;;;;20.54;41.20;101977.69;16135036;19;130729;-47
2022/05/27 04:14:32;;;;;;;1.40;0.40;;;;;;;20.53;41.58;101989.88;16131581;19;130315;-43
2022/05/27 04:19:53;;;;;;;1.52;0.50;;;;;;;20.53;41.44;101992.66;16129927;19;130382;-44
2022/05/27 04:25:15;;;;;;;1.55;0.35;;;;;;;20.53;41.42;101989.88;16134375;19;131087;-43
2022/05/27 04:30:37;;;;;;;1.88;0.60;;;;;;;20.53;41.69;101986.25;16134441;19;130871;-46
2022/05/27 04:36:00;;;;;;;1.35;0.52;;;;;;;20.52;41.48;101979.84;16130082;19;129711;-45
2022/05/27 04:41:24;;;;;;;1.45;0.50;;;;;;;20.52;41.45;101985.41;16135648;19;129895;-50
2022/05/27 04:46:46;;;;;;;2.65;0.95;;;;;;;20.52;41.93;101990.09;16135181;19;130601;-46
2022/05/27 04:52:08;;;;;;;1.08;0.40;;;;;;;20.51;41.37;101986.50;16128581;19;129411;-42
2022/05/27 04:57:34;;;;;;;1.52;0.60;;;;;;;20.51;41.48;101994.81;16131934;19;130322;-43
2022/05/27 05:02:56;;;;;;;1.25;0.40;;;;;;;20.51;41.50;101993.97;16130877;19;130507;-45
2022/05/27 05:08:33;;;;;;;7.93;0.93;;;;;;;20.51;41.96;101999.53;16126708;19;130533;-43
2022/05/27 05:13:55;;;;;;;3.53;0.60;;;;;;;20.46;41.89;102003.00;16123278;19;129671;-47
2022/05/27 05:19:17;;;;;;;4.43;1.17;;;;;;;20.49;41.65;102001.72;16131026;19;129685;-51
2022/05/27 05:24:39;;;;;;;4.55;0.52;;;;;;;20.50;42.10;102009.81;16144154;19;130453;-49
2022/05/27 05:30:02;;;;;;;4.03;0.50;;;;;;;20.50;42.12;102004.25;16144240;19;129873;-47
2022/05/27 05:35:24;;;;;;;4.72;1.02;;;;;;;20.51;41.67;102014.28;16141459;19;130688;-50
2022/05/27 05:40:47;;;;;;;3.30;0.52;;;;;;;20.54;42.26;102019.38;16144587;19;130418;-44
2022/05/27 05:46:08;;;;;;;1.83;0.60;;;;;;;20.57;42.23;102021.69;16147006;19;129652;-49
2022/05/27 05:51:31;;;;;;;4.80;0.85;;;;;;;20.59;42.11;102019.50;16146353;19;130454;-51
2022/05/27 05:56:54;;;;;;;1.75;0.60;;;;;;;20.63;42.06;102021.84;16150057;19;130290;-51
2022/05/27 06:02:16;;;;;;;3.45;0.60;;;;;;;20.63;42.01;102030.19;16143113;19;129178;-48
2022/05/27 06:07:37;;;;;;;2.58;0.68;;;;;;;20.63;42.01;102032.97;16142071;19;129893;-49
2022/05/27 06:12:59;;;;;;;1.75;0.60;;;;;;;20.65;42.08;102028.84;16140099;19;129877;-47
2022/05/27 06:18:21;;;;;;;1.63;0.70;;;;;;;20.66;41.94;102019.44;16140501;19;129552;-51
2022/05/27 06:23:44;;;;;;;2.35;0.80;;;;;;;20.70;42.30;102026.25;16143102;19;130771;-48
2022/05/27 06:34:46;;;;;;;9.70;0.80;;;;;;;20.82;41.91;102029.09;16131658;19;130765;-48
2022/05/27 06:40:09;;;;;;;2.65;0.70;;;;;;;20.87;42.20;102033.94;16137156;19;130527;-51
2022/05/27 06:45:31;;;;;;;4.15;1.00;;;;;;;20.90;41.84;102036.25;16137299;19;129245;-49
2022/05/27 06:50:53;;;;;;;2.95;0.80;;;;;;;20.90;42.14;102039.91;16134834;19;130205;-49
2022/05/27 06:56:15;;;;;;;3.03;1.20;;;;;;;20.93;42.19;102046.06;16132798;19;129627;-50
2022/05/27 07:01:37;;;;;;;3.15;0.93;;;;;;;20.98;42.13;102049.00;16138389;19;129683;-50
2022/05/27 07:06:59;;;;;;;5.00;1.02;;;;;;;21.03;42.38;102057.50;16136956;19;130424;-50
2022/05/27 07:12:21;;;;;;;2.95;0.68;;;;;;;21.04;42.63;102048.09;16133864;19;130066;-44
2022/05/27 07:17:43;;;;;;;5.13;1.33;;;;;;;21.06;42.11;102057.00;16128121;19;130248;-48
2022/05/27 07:23:05;;;;;;;7.20;0.75;;;;;;;21.03;42.29;102069.47;16136878;19;130507;-45
2022/05/27 07:28:28;;;;;;;11.55;1.23;;;;;;;21.02;42.53;102062.22;16137569;19;130478;-44
2022/05/27 07:33:49;;;;;;;6.50;1.00;;;;;;;21.00;42.57;102069.09;16142847;19;128868;-42
2022/05/27 07:39:11;;;;;;;4.13;1.27;;;;;;;20.99;42.72;102071.00;16141529;19;129726;-44
2022/05/27 07:44:36;;;;;;;7.50;0.95;;;;;;;20.99;42.70;102072.97;16133360;19;130729;-47
2022/05/27 07:49:58;;;;;;;7.70;1.20;;;;;;;21.00;42.68;102075.50;16140641;19;129887;-44
2022/05/27 07:55:20;;;;;;;4.97;1.33;;;;;;;21.07;42.72;102075.41;16136256;19;130721;-42
2022/05/27 08:00:42;;;;;;;8.43;1.15;;;;;;;21.11;42.41;102075.81;16136181;19;129460;-42
2022/05/27 08:06:05;;;;;;;5.40;1.00;;;;;;;21.14;42.51;102081.75;16128025;19;130408;-43
2022/05/27 08:11:27;;;;;;;6.53;0.90;;;;;;;21.17;42.40;102081.25;16130068;19;129528;-45
2022/05/27 08:16:48;;;;;;;4.75;1.00;;;;;;;21.21;42.17;102082.50;16128020;19;130645;-42
2022/05/27 08:22:10;;;;;;;4.20;1.00;;;;;;;21.25;41.97;102070.91;16130140;19;130096;-43
2022/05/27 08:27:32;;;;;;;4.53;0.73;;;;;;;21.27;42.15;102086.25;16128506;19;129756;-43
2022/05/27 08:32:55;;;;;;;2.70;0.90;;;;;;;21.27;42.28;102097.41;16130293;19;129792;-44
2022/05/27 08:38:21;;;;;;;3.58;0.80;;;;;;;21.27;42.16;102093.78;16129050;19;130402;-43
2022/05/27 08:44:00;;;;;;;6.55;1.00;;;;;;;21.25;41.87;102098.72;16129009;19;130126;-42
2022/05/27 08:49:37;;;;;;;7.20;1.48;;;;;;;21.18;41.60;102088.53;16129246;19;130378;-42
2022/05/27 08:55:04;;;;;;;5.63;1.20;;;;;;;21.21;41.89;102084.44;16133570;19;130260;-43
2022/05/27 09:00:29;;;;;;;3.45;0.88;;;;;;;21.27;41.70;102085.44;16138638;19;129674;-42
2022/05/27 09:06:01;;;;;;;4.15;1.10;;;;;;;21.28;41.42;102085.19;16135053;19;129521;-44
2022/05/27 09:11:53;;;;;;;8.02;1.50;;;;;;;21.25;41.89;102093.16;16136066;19;131060;-45
2022/05/27 09:17:24;;;;;;;6.07;1.05;;;;;;;21.25;41.67;102095.94;16130630;19;129111;-47
2022/05/27 09:23:30;;;;;;;3.03;1.00;;;;;;;21.27;41.17;102102.97;16130388;19;130561;-43
2022/05/27 09:29:19;;;;;;;3.45;1.10;;;;;;;21.28;41.47;102115.78;16118459;19;129298;-41
2022/05/27 09:34:43;;;;;;;4.10;1.25;;;;;;;21.26;41.15;102117.13;16119163;19;132166;-44
2022/05/27 09:40:14;;;;;;;4.87;1.30;;;;;;;21.27;40.94;102125.22;16124604;19;129208;-45
2022/05/27 09:45:36;;;;;;;2.13;0.95;;;;;;;21.28;41.22;102109.41;16125167;19;129509;-41
2022/05/27 09:51:03;;;;;;;5.38;1.40;;;;;;;21.29;41.07;102122.22;16125340;19;129368;-44
2022/05/27 09:56:36;;;;;;;6.75;1.33;;;;;;;21.30;40.54;102127.53;16119569;19;129879;-44
2022/05/27 10:02:16;;;;;;;5.50;1.25;;;;;;;21.30;40.34;102129.47;16121141;19;129289;-47
2022/05/27 10:07:49;;;;;;;4.07;1.00;;;;;;;21.27;40.31;102135.53;16143549;19;129849;-45
2022/05/27 10:13:28;;;;;;;2.80;1.10;;;;;;;21.28;39.96;102145.56;16144046;19;129806;-42
2022/05/27 10:19:10;;;;;;;5.20;1.60;;;;;;;21.26;39.93;102133.81;16143896;19;130711;-43
2022/05/27 10:24:36;;;;;;;9.52;1.25;;;;;;;21.21;40.09;102138.16;16146778;19;129876;-42
2022/05/27 10:30:00;;;;;;;6.93;1.10;;;;;;;21.19;40.04;102151.44;16144170;19;129294;-47
2022/05/27 10:35:34;;;;;;;5.57;1.47;;;;;;;21.20;39.86;102144.78;16139864;19;129719;-45
2022/05/27 10:41:06;;;;;;;10.90;1.52;;;;;;;21.22;39.50;102147.38;16143190;19;129353;-45
2022/05/27 10:46:37;;;;;;;6.60;1.50;;;;;;;21.21;39.58;102160.41;16139709;19;131530;-45
2022/05/27 10:52:27;;;;;;;5.88;1.60;;;;;;;21.20;39.39;102142.00;16143441;19;129723;-43
2022/05/27 11:04:02;;;;;;;6.63;1.58;;;;;;;21.21;39.32;102149.28;16142572;19;129569;-43
2022/05/27 11:09:51;;;;;;;5.43;1.88;;;;;;;21.20;39.26;102158.72;16139925;19;129813;-42
2022/05/27 11:15:31;;;;;;;7.00;1.80;;;;;;;21.18;39.60;102171.16;16138649;19;129883;-41
2022/05/27 11:21:05;;;;;;;8.80;1.75;;;;;;;21.19;39.30;102158.97;16134198;19;129885;-42
2022/05/27 11:26:47;;;;;;;6.30;1.50;;;;;;;21.21;38.83;102163.19;16139578;19;129959;-43
2022/05/27 11:32:25;;;;;;;3.10;1.02;;;;;;;21.26;38.79;102165.28;16143394;19;130825;-40
2022/05/27 11:37:59;;;;;;;9.45;1.80;;;;;;;21.27;38.82;102166.13;16137020;19;129470;-45
2022/05/27 11:43:47;;;;;;;5.05;1.58;;;;;;;21.30;38.93;102171.22;16140251;19;130328;-42
2022/05/27 11:49:36;;;;;;;8.05;1.63;;;;;;;21.30;38.51;102160.06;16132494;19;129609;-44
2022/05/27 11:55:07;;;;;;;5.30;1.60;;;;;;;21.28;38.79;102165.06;16137213;19;130377;-47
2022/05/27 12:00:34;;;;;;;8.50;1.75;;;;;;;21.29;38.28;102166.75;16137567;19;129848;-45
2022/05/27 12:06:01;;;;;;;7.57;1.70;;;;;;;21.28;38.30;102153.94;16140040;19;130852;-42
2022/05/27 12:11:37;;;;;;;6.05;1.52;;;;;;;21.29;38.28;102156.47;16137565;19;132564;-40
2022/05/27 12:17:00;;;;;;;4.83;1.60;;;;;;;21.30;38.13;102162.88;16135221;19;129500;-45
2022/05/27 12:22:27;;;;;;;4.43;1.48;;;;;;;21.33;37.86;102163.28;16139104;19;130541;-44
2022/05/27 12:27:50;;;;;;;5.15;1.70;;;;;;;21.36;37.98;102164.72;16135946;19;130734;-45
2022/05/27 12:33:17;;;;;;;10.18;1.70;;;;;;;21.39;37.65;102161.47;16135154;19;129976;-43
2022/05/27 12:38:47;;;;;;;6.35;1.58;;;;;;;21.37;37.62;102166.44;16132456;19;130393;-42
2022/05/27 12:44:22;;;;;;;7.63;1.80;;;;;;;21.33;37.18;102173.53;16136227;19;129994;-45
2022/05/27 12:49:48;;;;;;;3.80;1.50;;;;;;;21.31;37.36;102172.91;16136458;19;129698;-41
2022/05/27 13:00:55;;;;;;;5.50;1.70;;;;;;;21.31;37.43;102170.13;16134367;19;129751;-46
2022/05/27 13:01:30;;;;;;;9.02;1.90;;;;;;;21.31;36.95;102172.91;16135610;19;130468;-45
2022/05/27 13:07:05;;;;;;;5.45;1.58;;;;;;;21.29;37.24;102183.47;16135065;19;129590;-41
2022/05/27 13:12:46;;;;;;;10.93;1.63;;;;;;;21.29;36.84;102177.91;16136240;19;130329;-43
2022/05/27 13:18:28;;;;;;;8.63;1.98;;;;;;;21.27;36.18;102169.75;16128507;19;130244;-46
2022/05/27 13:24:02;;;;;;;10.48;1.80;;;;;;;21.27;36.60;102177.28;16134151;19;130795;-42
2022/05/27 13:29:42;;;;;;;6.68;1.70;;;;;;;21.27;36.66;102185.63;16134699;19;129681;-42
2022/05/27 13:35:17;;;;;;;6.40;1.48;;;;;;;21.23;36.44;102185.25;16129109;19;129272;-49
2022/05/27 13:40:40;;;;;;;9.90;1.67;;;;;;;21.20;36.75;102185.72;16137544;19;129997;-51
2022/05/27 13:46:02;;;;;;;7.57;1.60;;;;;;;21.21;36.38;102190.19;16147877;19;129012;-43
2022/05/27 13:51:25;;;;;;;11.82;2.00;;;;;;;21.19;36.53;102201.53;16148524;19;129641;-46
2022/05/27 13:57:01;;;;;;;11.02;1.95;;;;;;;21.22;36.38;102211.38;16142370;19;128970;-42
2022/05/27 14:02:47;;;;;;;8.45;1.83;;;;;;;21.22;36.52;102209.44;16149655;19;129409;-44
2022/05/27 14:08:09;;;;;;;8.43;2.10;;;;;;;21.24;36.27;102202.78;16145321;19;129631;-42
2022/05/27 14:13:32;;;;;;;20.30;2.53;;;;;;;21.28;36.49;102209.59;16138047;19;130838;-43
2022/05/27 14:18:58;;;;;;;6.53;1.67;;;;;;;21.30;36.45;102212.97;16142093;19;130449;-44
2022/05/27 14:24:27;;;;;;;;;;;;;;;21.25;35.91;102210.06;16143809;19;130887;-45
2022/05/27 14:29:55;;;;;;;7.13;1.90;;;;;;;21.28;36.09;102204.03;16145574;19;130991;-42
2022/05/27 14:35:21;;;;;;;12.63;1.70;;;;;;;21.29;35.89;102216.88;16144666;19;129169;-44
2022/05/27 14:40:46;;;;;;;7.65;1.77;;;;;;;21.29;35.72;102217.69;16147138;19;129155;-44
2022/05/27 14:46:31;;;;;;;6.22;1.40;;;;;;;21.33;35.59;102218.06;16146507;19;129150;-44
2022/05/27 14:51:54;;;;;;;10.05;1.52;;;;;;;21.27;35.46;102225.44;16139022;19;131909;-46
2022/05/27 14:57:20;;;;;;;6.00;1.70;;;;;;;21.25;35.10;102235.09;16138344;19;130408;-42
2022/05/27 15:02:54;;;;;;;8.30;1.80;;;;;;;21.23;35.23;102229.78;16141995;19;130704;-42
2022/05/27 15:08:19;;;;;;;8.45;1.70;;;;;;;21.21;35.76;102227.22;16141011;19;129400;-44
2022/05/27 15:13:54;;;;;;;6.53;2.00;;;;;;;21.16;34.14;102221.50;16142190;19;129768;-47
2022/05/27 15:19:19;;;;;;;9.73;2.25;;;;;;;21.12;34.05;102228.59;16140118;19;129011;-45
2022/05/27 15:24:52;;;;;;;8.27;1.77;;;;;;;21.15;34.38;102233.72;16144822;19;129956;-47
2022/05/27 15:36:05;;;;;;;7.30;2.00;;;;;;;21.16;34.14;102232.63;16141055;19;129844;-44
2022/05/27 15:41:30;;;;;;;7.85;2.05;;;;;;;21.16;33.85;102238.19;16142466;19;130110;-44
2022/05/27 15:46:52;;;;;;;7.80;1.60;;;;;;;21.18;33.90;102219.31;16142437;19;128901;-44
2022/05/27 15:52:14;;;;;;;8.20;1.77;;;;;;;21.18;33.74;102233.22;16140250;19;130136;-45
2022/05/27 15:57:36;;;;;;;5.70;1.55;;;;;;;21.19;33.60;102225.75;16133892;19;129315;-42
2022/05/27 16:02:58;;;;;;;5.93;1.45;;;;;;;21.21;32.86;102227.22;16139180;19;128948;-44
2022/05/27 16:08:20;;;;;;;17.67;2.30;;;;;;;21.19;32.53;102234.09;16143959;19;129566;-43
2022/05/27 16:13:44;;;;;;;17.85;1.92;;;;;;;21.22;32.61;102236.41;16139209;19;129176;-46
2022/05/27 16:19:06;;;;;;;11.65;2.15;;;;;;;21.24;32.71;102237.00;16133584;19;129583;-43
2022/05/27 16:24:28;;;;;;;6.53;1.77;;;;;;;21.27;33.34;102227.38;16138453;19;129000;-49
2022/05/27 16:29:49;;;;;;;6.15;1.65;;;;;;;21.29;33.05;102230.78;16138777;19;130033;-44
2022/05/27 16:35:15;;;;;;;11.23;2.40;;;;;;;21.31;33.13;102235.03;16133879;19;130110;-41
2022/05/27 16:40:37;;;;;;;;;;;;;;;21.27;33.12;102236.56;16138735;19;129465;-48
2022/05/27 16:45:58;;;;;;;13.10;2.00;;;;;;;21.31;32.99;102234.16;16136381;19;129532;-44
2022/05/27 16:51:20;;;;;;;10.88;2.00;;;;;;;21.32;33.37;102235.84;16135185;19;129429;-46
2022/05/27 16:56:43;;;;;;;6.85;1.80;;;;;;;21.32;32.93;102239.50;16130194;19;128993;-45
2022/05/27 17:02:05;;;;;;;6.38;1.40;;;;;;;21.32;33.12;102238.63;16130786;19;129599;-44
2022/05/27 17:07:27;;;;;;;13.38;1.50;;;;;;;21.30;33.05;102249.16;16133599;19;129771;-45
2022/05/27 17:12:50;;;;;;;6.57;1.50;;;;;;;21.30;33.17;102238.88;16126987;19;131428;-43
2022/05/27 17:18:12;;;;;;;10.25;1.77;;;;;;;21.26;33.22;102245.16;16140739;19;129822;-42
2022/05/27 17:23:34;;;;;;;7.70;1.50;;;;;;;21.25;32.89;102249.84;16146050;19;130698;-43
2022/05/27 17:28:57;;;;;;;5.40;1.20;;;;;;;21.23;33.06;102252.03;16146121;19;129931;-40
2022/05/27 17:34:19;;;;;;;7.07;1.67;;;;;;;21.19;33.24;102248.00;16143511;19;130498;-44
2022/05/27 17:39:41;;;;;;;5.43;1.52;;;;;;;21.17;32.91;102259.34;16147977;19;129113;-44
2022/05/27 17:45:04;;;;;;;5.22;1.30;;;;;;;21.17;32.92;102259.34;16143383;19;129575;-45
2022/05/27 17:56:14;;;;;;;4.88;1.38;;;;;;;21.16;32.93;102256.81;16139276;19;130705;-43
2022/05/27 18:01:36;;;;;;;6.47;1.40;;;;;;;21.15;32.73;102258.75;16138022;19;129335;-45
2022/05/27 18:06:58;;;;;;;6.43;1.70;;;;;;;21.13;32.74;102260.06;16142577;19;129813;-46
2022/05/27 18:12:20;;;;;;;7.78;1.60;;;;;;;21.14;32.89;102265.41;16135921;19;129327;-41
2022/05/27 18:17:43;;;;;;;4.80;1.35;;;;;;;21.15;33.33;102269.91;16139030;19;129739;-42
2022/05/27 18:23:07;;;;;;;9.75;1.35;;;;;;;21.16;33.47;102276.28;16147101;19;130313;-43
2022/05/27 18:28:29;;;;;;;9.63;1.63;;;;;;;21.17;33.46;102275.22;16143918;19;129050;-44
2022/05/27 18:33:51;;;;;;;11.07;1.60;;;;;;;21.16;33.13;102277.16;16145353;19;131604;-48
2022/05/27 18:39:12;;;;;;;6.90;1.65;;;;;;;21.15;33.04;102281.03;16141620;19;129347;-42
2022/05/27 18:44:34;;;;;;;10.13;1.88;;;;;;;21.17;33.59;102278.00;16147925;19;129372;-40
2022/05/27 18:49:56;;;;;;;10.38;1.40;;;;;;;21.15;33.56;102283.81;16146615;19;130259;-43
2022/05/27 18:55:22;;;;;;;33.28;2.50;;;;;;;21.16;33.13;102285.50;16144851;19;129084;-40
2022/05/27 19:00:44;;;;;;;8.75;1.63;;;;;;;21.18;33.31;102288.06;16146807;19;131235;-41
2022/05/27 19:06:07;;;;;;;9.88;1.42;;;;;;;21.18;33.46;102288.06;16146341;19;129776;-42
2022/05/27 19:11:29;;;;;;;9.40;1.50;;;;;;;21.17;33.74;102291.91;16144975;19;130584;-41
2022/05/27 19:16:51;;;;;;;8.55;1.52;;;;;;;21.15;33.66;102288.50;16142081;19;129905;-41
2022/05/27 19:22:12;;;;;;;11.23;1.40;;;;;;;21.14;33.90;102287.66;16146544;19;129386;-40
2022/05/27 19:27:38;;;;;;;11.52;1.60;;;;;;;21.12;33.94;102292.59;16141460;19;129395;-40
2022/05/27 19:33:04;;;;;;;29.25;2.50;;;;;;;21.11;33.47;102303.97;16141427;19;130076;-41
2022/05/27 19:38:26;;;;;;;26.67;1.40;;;;;;;21.10;33.84;102303.13;16137345;19;129476;-42
2022/05/27 19:43:48;;;;;;;6.30;1.15;;;;;;;21.10;33.76;102297.53;16142669;19;129941;-42
2022/05/27 19:49:10;;;;;;;10.70;1.23;;;;;;;21.09;33.92;102290.28;16140509;19;129274;-43
2022/05/27 19:54:33;;;;;;;4.82;1.08;;;;;;;21.10;34.38;102289.19;16143270;19;129092;-43
2022/05/27 19:59:55;;;;;;;7.05;1.20;;;;;;;21.09;34.26;102301.41;16138337;19;129659;-43
2022/05/27 20:05:17;;;;;;;32.53;2.47;;;;;;;21.08;34.40;102305.28;16137696;19;129818;-44
2022/05/27 20:10:41;;;;;;;18.95;1.60;;;;;;;21.06;34.29;102313.00;16140371;19;131017;-48
2022/05/27 20:16:04;;;;;;;8.07;1.50;;;;;;;21.03;34.55;102313.47;16137528;19;129401;-47
2022/05/27 20:21:26;;;;;;;10.30;1.80;;;;;;;21.00;34.36;102308.34;16130570;19;129904;-45
2022/05/27 20:26:48;;;;;;;15.05;1.92;;;;;;;21.00;34.90;102297.22;16129942;19;129009;-42
2022/05/27 20:32:12;;;;;;;12.27;1.52;;;;;;;21.01;34.98;102310.91;16142260;19;130618;-40
2022/05/27 20:37:34;;;;;;;9.02;1.33;;;;;;;21.02;34.95;102306.19;16135463;19;129335;-39
2022/05/27 20:42:55;;;;;;;10.68;1.45;;;;;;;21.03;35.26;102307.91;16142137;19;130551;-39
2022/05/27 20:48:19;;;;;;;11.98;1.58;;;;;;;21.03;35.02;102302.34;16139547;19;129167;-42
2022/05/27 20:53:45;;;;;;;6.40;1.23;;;;;;;21.04;35.38;102298.47;16136581;19;130254;-39
2022/05/27 20:59:07;;;;;;;3.33;0.93;;;;;;;21.04;35.25;102290.97;16133790;19;129583;-39
2022/05/27 21:04:40;;;;;;;5.25;1.10;;;;;;;21.05;35.15;102287.09;16136658;19;129341;-40
2022/05/27 21:10:03;;;;;;;5.85;1.25;;;;;;;21.04;35.64;102287.34;16137847;19;128996;-41
2022/05/27 21:15:24;;;;;;;5.03;1.27;;;;;;;21.05;35.83;102283.47;16137840;19;129839;-45
2022/05/27 21:20:46;;;;;;;3.92;1.15;;;;;;;21.06;35.78;102285.16;16132354;19;129776;-41
2022/05/27 21:26:08;;;;;;;5.38;1.25;;;;;;;21.07;35.65;102286.88;16132714;19;129966;-41
2022/05/27 21:31:30;;;;;;;4.85;1.13;;;;;;;21.04;35.63;102285.41;16136121;19;132560;-45
2022/05/27 21:36:54;;;;;;;3.70;1.10;;;;;;;21.05;35.50;102286.25;16133055;19;130754;-40
2022/05/27 21:42:15;;;;;;;6.28;1.35;;;;;;;21.02;35.93;102282.00;16135889;19;129940;-42
2022/05/27 21:47:37;;;;;;;3.88;0.90;;;;;;;21.00;35.95;102286.09;16129776;19;129381;-40
2022/05/27 21:52:59;;;;;;;5.60;1.00;;;;;;;20.98;35.96;102285.47;16132184;19;129599;-41
2022/05/27 21:58:23;;;;;;;4.57;0.93;;;;;;;20.96;35.76;102285.72;16127108;19;130578;-43
2022/05/27 22:03:44;;;;;;;4.88;0.75;;;;;;;20.93;35.89;102291.72;16145142;19;129608;-41
2022/05/27 22:09:06;;;;;;;3.20;0.88;;;;;;;20.93;36.28;102288.94;16146770;19;133229;-45
2022/05/27 22:14:28;;;;;;;2.83;0.80;;;;;;;20.90;36.29;102281.91;16142167;19;129683;-41
2022/05/27 22:19:50;;;;;;;2.55;0.60;;;;;;;20.88;36.34;102284.06;16138850;19;130685;-41
2022/05/27 22:25:13;;;;;;;5.75;1.10;;;;;;;20.88;35.78;102277.63;16139002;19;130287;-41
2022/05/27 22:30:35;;;;;;;1.27;0.57;;;;;;;20.86;36.03;102277.88;16142033;19;129826;-41
2022/05/27 22:36:03;;;;;;;2.45;0.52;;;;;;;20.86;36.49;102269.53;16139605;19;129794;-41
2022/05/27 22:41:25;;;;;;;1.13;0.70;;;;;;;20.82;36.06;102254.38;16140422;19;130309;-41
2022/05/27 22:46:47;;;;;;;1.88;0.68;;;;;;;20.81;36.54;102261.00;16139395;19;129878;-42
2022/05/27 22:52:09;;;;;;;2.00;0.60;;;;;;;20.80;36.69;102259.31;16139071;19;129821;-40
2022/05/27 22:57:31;;;;;;;2.83;0.90;;;;;;;20.78;35.97;102255.94;16136011;19;129718;-41
2022/05/27 23:02:53;;;;;;;1.83;0.63;;;;;;;20.74;36.41;102238.78;16135811;19;130587;-41
2022/05/27 23:08:16;;;;;;;3.35;0.50;;;;;;;20.74;36.60;102238.78;16134342;19;129925;-42
2022/05/27 23:19:23;;;;;;;1.20;0.50;;;;;;;20.72;36.75;102226.22;16134122;19;129792;-42
2022/05/27 23:24:45;;;;;;;1.35;0.50;;;;;;;20.71;36.55;102216.16;16137838;19;130108;-44
2022/05/27 23:30:07;;;;;;;1.77;0.45;;;;;;;20.71;36.65;102216.16;16136857;19;130858;-44
2022/05/27 23:35:29;;;;;;;3.22;0.80;;;;;;;20.69;36.52;102212.75;16136931;19;129431;-42
2022/05/27 23:40:52;;;;;;;1.08;0.32;;;;;;;20.68;36.71;102217.47;16130724;19;130780;-44
2022/05/27 23:46:13;;;;;;;1.77;0.50;;;;;;;20.66;36.87;102211.28;16136683;19;130819;-45
2022/05/27 23:51:36;;;;;;;2.15;0.60;;;;;;;20.65;36.75;102203.19;16135379;19;130430;-40
2022/05/27 23:56:58;;;;;;;0.75;0.30;;;;;;;20.63;36.97;102203.41;16133458;19;130188;-43
